createdAt,value
2022-12-06T00:01:50.198Z,40.83
2022-12-06T00:04:16.579Z,42.60
2022-12-06T00:06:42.901Z,43.58
2022-12-06T00:09:09.228Z,42.75
2022-12-06T00:11:35.647Z,41.17
2022-12-06T00:14:01.942Z,38.47
2022-12-06T00:16:28.247Z,39.53
2022-12-06T00:18:54.654Z,40.60
2022-12-06T00:21:20.999Z,41.28
2022-12-06T00:23:47.306Z,36.30
2022-12-06T00:26:13.617Z,36.75
2022-12-06T00:28:40.108Z,34.22
2022-12-06T00:31:06.444Z,34.35
2022-12-06T00:33:32.824Z,37.30
2022-12-06T00:35:59.163Z,36.78
2022-12-06T00:38:25.487Z,36.33
2022-12-06T00:40:51.815Z,35.30
2022-12-06T00:43:18.109Z,36.80
2022-12-06T00:45:44.439Z,34.75
2022-12-06T00:48:10.835Z,34.78
2022-12-06T00:50:37.176Z,35.80
2022-12-06T00:53:03.432Z,35.13
2022-12-06T00:55:29.684Z,33.05
2022-12-06T00:57:55.983Z,33.03
2022-12-06T01:00:22.316Z,32.97
2022-12-06T01:02:48.743Z,32.63
2022-12-06T01:05:15.148Z,33.92
2022-12-06T01:07:41.740Z,34.60
2022-12-06T01:10:08.115Z,29.52
2022-12-06T01:12:34.589Z,29.92
2022-12-06T01:15:01.070Z,30.60
2022-12-06T01:17:27.740Z,35.20
2022-12-06T01:19:54.061Z,29.42
2022-12-06T01:22:20.420Z,30.50
2022-12-06T01:24:46.883Z,30.65
2022-12-06T01:27:13.163Z,31.38
2022-12-06T01:29:39.481Z,28.02
2022-12-06T01:32:05.857Z,27.10
2022-12-06T01:34:32.173Z,29.35
2022-12-06T01:36:58.542Z,28.17
2022-12-06T01:39:24.873Z,27.90
2022-12-06T01:41:51.510Z,26.75
2022-12-06T01:44:21.256Z,27.25
2022-12-06T01:46:47.840Z,26.98
2022-12-06T01:49:14.440Z,26.35
2022-12-06T01:51:40.775Z,27.25
2022-12-06T01:54:07.424Z,26.92
2022-12-06T01:56:33.713Z,26.60
2022-12-06T01:59:00.005Z,26.08
2022-12-06T02:01:26.365Z,24.17
2022-12-06T02:03:53.153Z,25.25
2022-12-06T02:06:19.807Z,27.05
2022-12-06T02:08:46.384Z,24.58
2022-12-06T02:11:12.642Z,27.70
2022-12-06T02:13:38.989Z,24.40
2022-12-06T02:16:05.387Z,25.08
2022-12-06T02:18:31.969Z,26.00
2022-12-06T02:20:58.386Z,23.77
2022-12-06T02:23:24.682Z,24.08
2022-12-06T02:25:51.361Z,24.58
2022-12-06T02:28:17.698Z,24.98
2022-12-06T02:30:44.062Z,24.13
2022-12-06T02:33:10.402Z,25.50
2022-12-06T02:35:36.795Z,22.88
2022-12-06T02:38:03.080Z,21.73
2022-12-06T02:40:29.352Z,21.52
2022-12-06T02:42:55.675Z,24.10
2022-12-06T02:45:21.944Z,21.92
2022-12-06T02:47:48.244Z,22.98
2022-12-06T02:50:14.572Z,23.05
2022-12-06T02:52:40.825Z,22.40
2022-12-06T02:55:07.120Z,20.05
2022-12-06T02:57:33.364Z,21.27
2022-12-06T02:59:59.810Z,21.65
2022-12-06T03:02:26.388Z,21.08
2022-12-06T03:04:52.696Z,20.63
2022-12-06T03:07:19.025Z,20.80
2022-12-06T03:09:45.281Z,19.58
2022-12-06T03:12:11.597Z,20.10
2022-12-06T03:14:38.114Z,19.35
2022-12-06T03:17:04.513Z,20.83
2022-12-06T03:19:30.898Z,19.23
2022-12-06T03:21:57.191Z,20.83
2022-12-06T03:24:23.689Z,19.98
2022-12-06T03:26:50.000Z,21.15
2022-12-06T03:29:16.326Z,20.13
2022-12-06T03:31:42.630Z,20.30
2022-12-06T03:34:08.939Z,19.13
2022-12-06T03:36:35.232Z,19.60
2022-12-06T03:39:01.509Z,19.52
2022-12-06T03:41:27.762Z,19.35
2022-12-06T03:43:54.044Z,18.02
2022-12-06T03:46:20.471Z,20.15
2022-12-06T03:48:46.893Z,20.30
2022-12-06T03:51:13.222Z,17.98
2022-12-06T03:53:39.501Z,17.35
2022-12-06T03:56:05.912Z,19.13
2022-12-06T03:58:32.244Z,18.10
2022-12-06T04:00:58.537Z,19.27
2022-12-06T04:03:24.867Z,17.83
2022-12-06T04:05:51.218Z,18.73
2022-12-06T04:08:17.660Z,17.58
2022-12-06T04:10:44.059Z,19.02
2022-12-06T04:13:13.084Z,17.52
2022-12-06T04:15:41.711Z,18.13
2022-12-06T04:18:08.060Z,17.50
2022-12-06T04:20:34.417Z,17.50
2022-12-06T04:23:00.684Z,19.73
2022-12-06T04:25:27.058Z,16.85
2022-12-06T04:27:53.476Z,17.90
2022-12-06T04:30:19.776Z,16.08
2022-12-06T04:32:46.087Z,18.48
2022-12-06T04:35:12.481Z,15.68
2022-12-06T04:37:38.797Z,16.58
2022-12-06T04:40:05.128Z,15.45
2022-12-06T04:42:31.669Z,17.50
2022-12-06T04:44:58.308Z,15.30
2022-12-06T04:47:24.572Z,15.05
2022-12-06T04:49:50.864Z,16.35
2022-12-06T04:52:17.229Z,14.02
2022-12-06T04:54:43.784Z,15.75
2022-12-06T04:57:10.139Z,16.90
2022-12-06T04:59:36.580Z,16.35
2022-12-06T05:02:03.082Z,17.45
2022-12-06T05:04:29.419Z,15.80
2022-12-06T05:06:55.653Z,15.20
2022-12-06T05:09:22.023Z,15.25
2022-12-06T05:11:48.315Z,15.95
2022-12-06T05:14:14.624Z,16.55
2022-12-06T05:16:41.017Z,14.43
2022-12-06T05:19:07.388Z,15.43
2022-12-06T05:21:33.676Z,16.15
2022-12-06T05:24:00.217Z,15.13
2022-12-06T05:26:26.447Z,16.60
2022-12-06T05:28:52.910Z,14.55
2022-12-06T05:31:19.353Z,13.88
2022-12-06T05:33:45.726Z,15.05
2022-12-06T05:36:12.064Z,13.32
2022-12-06T05:38:38.329Z,15.52
2022-12-06T05:41:04.628Z,15.82
2022-12-06T05:43:31.033Z,13.63
2022-12-06T05:45:57.347Z,15.13
2022-12-06T05:48:23.819Z,14.10
2022-12-06T05:50:50.131Z,14.25
2022-12-06T05:53:16.415Z,14.93
2022-12-06T05:55:42.783Z,14.52
2022-12-06T05:58:09.056Z,14.48
2022-12-06T06:00:35.465Z,14.00
2022-12-06T06:03:01.909Z,13.48
2022-12-06T06:05:28.336Z,13.48
2022-12-06T06:07:54.732Z,13.98
2022-12-06T06:10:21.166Z,12.38
2022-12-06T06:12:47.463Z,15.15
2022-12-06T06:15:14.048Z,14.32
2022-12-06T06:17:40.369Z,13.05
2022-12-06T06:20:06.644Z,12.05
2022-12-06T06:22:32.986Z,12.82
2022-12-06T06:24:59.339Z,14.23
2022-12-06T06:27:25.661Z,13.68
2022-12-06T06:29:51.960Z,13.98
2022-12-06T06:32:18.299Z,12.40
2022-12-06T06:34:44.610Z,13.70
2022-12-06T06:37:11.028Z,13.88
2022-12-06T06:39:37.355Z,12.40
2022-12-06T06:42:03.685Z,13.23
2022-12-06T06:44:30.051Z,13.45
2022-12-06T06:46:56.567Z,13.68
2022-12-06T06:49:22.894Z,11.88
2022-12-06T06:51:49.198Z,14.50
2022-12-06T06:54:15.533Z,12.88
2022-12-06T06:56:41.781Z,12.95
2022-12-06T06:59:08.064Z,12.23
2022-12-06T07:01:34.526Z,12.30
2022-12-06T07:04:00.879Z,11.93
2022-12-06T07:06:27.187Z,14.10
2022-12-06T07:08:53.528Z,13.25
2022-12-06T07:11:19.786Z,12.55
2022-12-06T07:13:51.208Z,11.25
2022-12-06T07:16:19.039Z,12.43
2022-12-06T07:18:45.629Z,12.82
2022-12-06T07:21:11.979Z,12.43
2022-12-06T07:23:38.268Z,12.45
2022-12-06T07:26:04.612Z,12.05
2022-12-06T07:28:30.959Z,11.82
2022-12-06T07:30:57.364Z,12.23
2022-12-06T07:33:23.691Z,11.63
2022-12-06T07:36:11.384Z,14.30
2022-12-06T07:38:36.519Z,12.52
2022-12-06T07:41:05.012Z,13.88
2022-12-06T07:43:31.756Z,12.07
2022-12-06T07:45:58.045Z,13.45
2022-12-06T07:48:24.437Z,12.75
2022-12-06T07:50:50.729Z,12.75
2022-12-06T07:53:17.084Z,12.27
2022-12-06T07:55:43.358Z,11.45
2022-12-06T07:58:09.616Z,12.93
2022-12-06T08:00:35.967Z,11.52
2022-12-06T08:03:02.294Z,12.45
2022-12-06T08:05:28.676Z,12.55
2022-12-06T08:07:55.194Z,11.82
2022-12-06T08:10:21.692Z,13.18
2022-12-06T08:12:48.031Z,13.95
2022-12-06T08:15:14.569Z,12.98
2022-12-06T08:17:40.946Z,12.30
2022-12-06T08:20:07.238Z,11.73
2022-12-06T08:22:33.566Z,12.27
2022-12-06T08:24:59.894Z,12.85
2022-12-06T08:27:26.252Z,12.48
2022-12-06T08:29:52.595Z,12.82
2022-12-06T08:32:18.940Z,11.38
2022-12-06T08:34:45.557Z,13.30
2022-12-06T08:37:11.884Z,12.52
2022-12-06T08:39:47.359Z,11.43
2022-12-06T08:42:13.657Z,12.63
2022-12-06T08:44:39.953Z,12.65
2022-12-06T08:47:06.408Z,11.75
2022-12-06T08:49:32.833Z,13.55
2022-12-06T08:51:59.199Z,13.55
2022-12-06T08:54:25.714Z,13.27
2022-12-06T08:56:52.054Z,13.27
2022-12-06T08:59:18.388Z,11.30
2022-12-06T09:01:45.223Z,12.82
2022-12-06T09:04:11.792Z,11.63
2022-12-06T09:06:38.240Z,11.82
2022-12-06T09:09:04.587Z,10.98
2022-12-06T09:11:30.863Z,13.57
2022-12-06T09:13:57.252Z,11.65
2022-12-06T09:16:23.614Z,11.35
2022-12-06T09:18:50.074Z,13.80
2022-12-06T09:21:16.446Z,13.32
2022-12-06T09:23:42.875Z,12.48
2022-12-06T09:26:09.269Z,12.02
2022-12-06T09:28:35.845Z,12.55
2022-12-06T09:31:02.242Z,13.20
2022-12-06T09:33:30.484Z,12.35
2022-12-06T09:35:56.877Z,12.10
2022-12-06T09:38:23.235Z,12.48
2022-12-06T09:40:49.550Z,12.43
2022-12-06T09:43:16.033Z,12.32
2022-12-06T09:45:42.365Z,12.75
2022-12-06T09:48:08.705Z,12.35
2022-12-06T09:50:35.008Z,12.68
2022-12-06T09:53:01.351Z,12.20
2022-12-06T09:55:27.702Z,11.27
2022-12-06T09:57:54.128Z,12.10
2022-12-06T10:00:22.886Z,12.60
2022-12-06T10:02:49.622Z,11.80
2022-12-06T10:05:16.041Z,12.27
2022-12-06T10:07:42.653Z,11.07
2022-12-06T10:10:09.141Z,13.63
2022-12-06T10:12:35.560Z,12.18
2022-12-06T10:15:02.042Z,12.50
2022-12-06T10:17:28.388Z,12.73
2022-12-06T10:19:54.883Z,13.35
2022-12-06T10:22:21.323Z,12.23
2022-12-06T10:24:47.632Z,11.77
2022-12-06T10:27:14.051Z,11.02
2022-12-06T10:29:40.336Z,12.60
2022-12-06T10:32:06.682Z,12.55
2022-12-06T10:34:33.112Z,12.43
2022-12-06T10:36:59.355Z,12.73
2022-12-06T10:39:25.759Z,12.38
2022-12-06T10:41:52.250Z,11.88
2022-12-06T10:44:18.671Z,13.60
2022-12-06T10:46:45.094Z,11.57
2022-12-06T10:49:11.489Z,12.95
2022-12-06T10:51:37.827Z,12.40
2022-12-06T10:54:04.171Z,11.65
2022-12-06T10:56:30.475Z,11.43
2022-12-06T10:58:56.784Z,12.60
2022-12-06T11:01:23.090Z,14.13
2022-12-06T11:03:49.582Z,11.68
2022-12-06T11:06:15.993Z,11.10
2022-12-06T11:08:42.375Z,12.30
2022-12-06T11:11:08.808Z,12.05
2022-12-06T11:13:35.240Z,11.73
2022-12-06T11:16:01.703Z,11.80
2022-12-06T11:18:28.036Z,12.23
2022-12-06T11:20:54.331Z,11.52
2022-12-06T11:23:20.658Z,12.68
2022-12-06T11:25:46.950Z,12.02
2022-12-06T11:28:13.395Z,11.80
2022-12-06T11:30:39.867Z,11.70
2022-12-06T11:33:06.299Z,11.50
2022-12-06T11:35:32.767Z,12.82
2022-12-06T11:37:59.138Z,12.27
2022-12-06T11:40:25.575Z,11.18
2022-12-06T11:42:51.871Z,13.00
2022-12-06T11:45:18.237Z,11.77
2022-12-06T11:47:44.555Z,11.10
2022-12-06T11:50:15.573Z,11.48
2022-12-06T11:52:43.275Z,11.57
2022-12-06T11:55:09.600Z,11.85
2022-12-06T11:57:35.927Z,11.23
2022-12-06T12:00:02.524Z,12.13
2022-12-06T12:02:29.029Z,11.85
2022-12-06T12:04:56.354Z,13.05
2022-12-06T12:07:22.897Z,11.82
2022-12-06T12:09:49.431Z,10.68
2022-12-06T12:12:16.066Z,11.10
2022-12-06T12:14:46.513Z,10.40
2022-12-06T12:17:15.948Z,11.23
2022-12-06T12:19:42.340Z,12.68
2022-12-06T12:22:08.688Z,11.70
2022-12-06T12:24:38.331Z,11.40
2022-12-06T12:27:23.252Z,12.00
2022-12-06T12:29:52.199Z,10.32
2022-12-06T12:32:18.952Z,12.35
2022-12-06T12:34:45.293Z,11.10
2022-12-06T12:37:11.787Z,11.48
2022-12-06T12:39:38.232Z,10.40
2022-12-06T12:42:04.638Z,12.57
2022-12-06T12:44:39.206Z,10.90
2022-12-06T12:47:06.124Z,11.57
2022-12-06T12:49:32.415Z,11.32
2022-12-06T12:51:58.847Z,10.95
2022-12-06T12:54:25.253Z,11.32
2022-12-06T12:56:51.592Z,11.60
2022-12-06T12:59:18.086Z,10.63
2022-12-06T13:01:44.412Z,11.25
2022-12-06T13:04:10.747Z,13.32
2022-12-06T13:06:37.362Z,11.52
2022-12-06T13:09:03.871Z,11.43
2022-12-06T13:11:30.459Z,11.00
2022-12-06T13:13:56.825Z,12.27
2022-12-06T13:16:23.252Z,11.30
2022-12-06T13:18:49.641Z,11.52
2022-12-06T13:21:16.143Z,11.07
2022-12-06T13:23:42.710Z,11.23
2022-12-06T13:26:09.056Z,11.07
2022-12-06T13:28:35.449Z,9.48
2022-12-06T13:31:01.843Z,10.40
2022-12-06T13:33:28.178Z,12.57
2022-12-06T13:35:54.518Z,10.15
2022-12-06T13:38:26.087Z,9.30
2022-12-06T13:40:53.057Z,10.40
2022-12-06T13:43:19.330Z,11.57
2022-12-06T13:45:45.790Z,10.13
2022-12-06T13:48:12.220Z,12.05
2022-12-06T13:50:38.513Z,10.75
2022-12-06T13:53:04.851Z,10.48
2022-12-06T13:55:31.303Z,9.35
2022-12-06T13:57:57.583Z,9.77
2022-12-06T14:00:23.936Z,10.10
2022-12-06T14:02:50.532Z,9.57
2022-12-06T14:05:16.877Z,10.52
2022-12-06T14:07:43.584Z,10.40
2022-12-06T14:10:09.943Z,10.40
2022-12-06T14:12:36.268Z,10.88
2022-12-06T14:15:02.711Z,11.65
2022-12-06T14:17:59.982Z,12.27
2022-12-06T14:20:17.153Z,10.10
2022-12-06T14:22:44.089Z,10.85
2022-12-06T14:25:10.436Z,11.27
2022-12-06T14:27:37.110Z,11.55
2022-12-06T14:30:03.736Z,9.40
2022-12-06T14:32:30.261Z,9.88
2022-12-06T14:34:56.628Z,10.18
2022-12-06T14:37:22.982Z,10.23
2022-12-06T14:39:49.639Z,10.88
2022-12-06T14:42:16.012Z,11.45
2022-12-06T14:44:42.396Z,9.77
2022-12-06T14:47:08.739Z,11.30
2022-12-06T14:49:35.250Z,11.27
2022-12-06T14:52:01.836Z,9.90
2022-12-06T14:54:28.176Z,10.43
2022-12-06T14:56:54.544Z,10.02
2022-12-06T14:59:33.621Z,10.45
2022-12-06T15:02:07.225Z,10.60
2022-12-06T15:04:33.577Z,14.13
2022-12-06T15:06:59.893Z,10.98
2022-12-06T15:09:26.449Z,10.15
2022-12-06T15:11:52.757Z,10.57
2022-12-06T15:14:19.205Z,10.82
2022-12-06T15:16:45.562Z,9.82
2022-12-06T15:19:11.959Z,16.02
2022-12-06T15:21:38.286Z,16.25
2022-12-06T15:24:04.609Z,28.35
2022-12-06T15:26:31.091Z,39.75
2022-12-06T15:28:57.543Z,33.17
2022-12-06T15:31:24.078Z,38.85
2022-12-06T15:33:50.709Z,53.53
2022-12-06T15:36:16.987Z,63.58
2022-12-06T15:38:43.335Z,61.63
2022-12-06T15:41:09.814Z,57.03
2022-12-06T15:43:36.340Z,62.10
2022-12-06T15:46:02.737Z,54.03
2022-12-06T15:48:29.179Z,57.08
2022-12-06T15:50:55.477Z,64.72
2022-12-06T15:53:21.769Z,63.13
2022-12-06T15:55:48.095Z,61.70
2022-12-06T15:58:14.544Z,60.13
2022-12-06T16:00:40.868Z,59.45
2022-12-06T16:03:07.188Z,59.85
2022-12-06T16:05:33.636Z,59.08
2022-12-06T16:08:00.073Z,60.50
2022-12-06T16:10:42.605Z,58.92
2022-12-06T16:13:12.849Z,59.03
2022-12-06T16:15:39.259Z,54.15
2022-12-06T16:18:05.919Z,46.22
2022-12-06T16:20:32.382Z,52.72
2022-12-06T16:22:58.725Z,56.70
2022-12-06T16:25:25.068Z,53.38
2022-12-06T16:27:51.520Z,46.42
2022-12-06T16:30:17.951Z,45.72
2022-12-06T16:32:44.338Z,42.75
2022-12-06T16:35:10.740Z,43.25
2022-12-06T16:37:37.240Z,42.53
2022-12-06T16:40:03.819Z,42.22
2022-12-06T16:42:30.248Z,44.15
2022-12-06T16:44:56.658Z,39.72
2022-12-06T16:49:49.320Z,40.55
2022-12-06T16:52:15.887Z,38.25
2022-12-06T16:54:42.510Z,37.67
2022-12-06T16:57:09.199Z,37.33
2022-12-06T16:59:35.604Z,40.63
2022-12-06T17:02:01.879Z,36.30
2022-12-06T17:04:28.250Z,33.38
2022-12-06T17:06:54.560Z,34.92
2022-12-06T17:09:20.920Z,31.70
2022-12-06T17:11:47.299Z,30.70
2022-12-06T17:14:13.696Z,31.80
2022-12-06T17:16:40.075Z,32.22
2022-12-06T17:19:06.440Z,31.08
2022-12-06T17:21:32.747Z,31.15
2022-12-06T17:23:59.099Z,30.50
2022-12-06T17:26:25.409Z,28.08
2022-12-06T17:28:52.035Z,29.42
2022-12-06T17:31:18.427Z,27.75
2022-12-06T17:33:44.771Z,32.72
2022-12-06T17:36:11.073Z,27.92
2022-12-06T17:38:37.412Z,25.45
2022-12-06T17:41:03.696Z,25.38
2022-12-06T17:43:29.977Z,25.50
2022-12-06T17:45:56.437Z,25.38
2022-12-06T17:48:22.808Z,24.73
2022-12-06T17:50:49.140Z,24.88
2022-12-06T17:53:15.496Z,23.38
2022-12-06T17:55:42.032Z,22.85
2022-12-06T17:58:08.563Z,23.27
2022-12-06T18:00:34.847Z,23.40
2022-12-06T18:03:01.193Z,22.02
2022-12-06T18:05:27.504Z,22.95
2022-12-06T18:07:53.947Z,20.90
2022-12-06T18:10:20.381Z,21.67
2022-12-06T18:12:46.846Z,21.48
2022-12-06T18:15:13.246Z,19.95
2022-12-06T18:17:39.548Z,19.55
2022-12-06T18:20:05.896Z,20.13
2022-12-06T18:22:32.240Z,21.17
2022-12-06T18:24:58.808Z,19.73
2022-12-06T18:27:25.526Z,19.52
2022-12-06T18:29:51.855Z,21.48
2022-12-06T18:32:18.251Z,13.23
2022-12-06T18:34:44.805Z,17.08
2022-12-06T18:37:11.111Z,15.88
2022-12-06T18:39:37.785Z,60.88
2022-12-06T18:42:04.202Z,122.90
2022-12-06T18:44:30.549Z,149.90
2022-12-06T18:46:56.964Z,152.55
2022-12-06T18:49:23.352Z,148.68
2022-12-06T18:51:49.926Z,145.63
2022-12-06T18:54:16.418Z,145.50
2022-12-06T18:56:42.714Z,137.75
2022-12-06T18:59:09.237Z,128.73
2022-12-06T19:01:35.725Z,147.35
2022-12-06T19:04:02.143Z,187.13
2022-12-06T19:06:28.527Z,213.27
2022-12-06T19:08:55.228Z,220.43
2022-12-06T19:11:21.566Z,220.35
2022-12-06T19:13:47.989Z,213.45
2022-12-06T19:16:14.428Z,210.05
2022-12-06T19:18:40.869Z,212.07
2022-12-06T19:21:07.203Z,292.58
2022-12-06T19:23:33.540Z,306.08
2022-12-06T19:25:59.884Z,298.17
2022-12-06T19:28:26.362Z,269.55
2022-12-06T19:30:52.813Z,269.98
2022-12-06T19:33:19.192Z,266.48
2022-12-06T19:35:45.679Z,254.82
2022-12-06T19:38:12.223Z,249.00
2022-12-06T19:40:38.631Z,237.18
2022-12-06T19:43:04.959Z,231.45
2022-12-06T19:45:31.464Z,230.00
2022-12-06T19:47:57.723Z,219.98
2022-12-06T19:50:24.145Z,206.48
2022-12-06T19:52:50.509Z,199.38
2022-12-06T19:55:16.910Z,193.30
2022-12-06T19:57:43.205Z,197.98
2022-12-06T20:00:09.585Z,186.15
2022-12-06T20:02:36.064Z,181.25
2022-12-06T20:05:02.471Z,178.82
2022-12-06T20:07:28.815Z,150.18
2022-12-06T20:09:55.173Z,198.35
2022-12-06T20:12:21.555Z,229.60
2022-12-06T20:14:47.939Z,242.77
2022-12-06T20:17:14.267Z,245.70
2022-12-06T20:19:40.699Z,241.23
2022-12-06T20:22:07.240Z,234.75
2022-12-06T20:24:33.720Z,229.90
2022-12-06T20:27:00.076Z,226.18
2022-12-06T20:29:26.658Z,237.88
2022-12-06T20:31:53.381Z,211.48
2022-12-06T20:34:19.935Z,210.23
2022-12-06T20:36:46.469Z,215.25
2022-12-06T20:39:12.778Z,193.20
2022-12-06T20:41:39.338Z,161.38
2022-12-06T20:44:05.634Z,177.43
2022-12-06T20:46:32.041Z,281.35
2022-12-06T20:48:58.429Z,331.45
2022-12-06T20:51:24.854Z,337.92
2022-12-06T20:53:51.166Z,313.83
2022-12-06T20:56:17.456Z,307.35
2022-12-06T20:58:43.868Z,293.92
2022-12-06T21:01:10.261Z,292.92
2022-12-06T21:03:36.603Z,281.90
2022-12-06T21:06:02.903Z,277.95
2022-12-06T21:08:29.219Z,292.83
2022-12-06T21:11:21.642Z,314.15
2022-12-06T21:13:41.873Z,368.23
2022-12-06T21:16:08.381Z,400.67
2022-12-06T21:18:34.787Z,385.67
2022-12-06T21:21:01.154Z,382.25
2022-12-06T21:23:27.993Z,371.40
2022-12-06T21:25:54.308Z,461.73
2022-12-06T21:28:20.735Z,444.00
2022-12-06T21:30:47.133Z,445.17
2022-12-06T21:33:13.458Z,443.35
2022-12-06T21:35:39.869Z,423.95
2022-12-06T21:38:06.210Z,421.42
2022-12-06T21:40:32.500Z,414.27
2022-12-06T21:42:58.775Z,418.90
2022-12-06T21:45:25.021Z,435.17
2022-12-06T21:47:51.279Z,459.02
2022-12-06T21:50:17.732Z,472.60
2022-12-06T21:52:44.027Z,465.80
2022-12-06T21:55:10.365Z,463.33
2022-12-06T21:57:36.627Z,450.65
2022-12-06T22:00:03.413Z,443.95
2022-12-06T22:02:30.058Z,434.58
2022-12-06T22:04:56.342Z,467.27
2022-12-06T22:07:22.768Z,498.92
2022-12-06T22:09:49.062Z,542.47
2022-12-06T22:12:15.329Z,533.85
2022-12-06T22:14:41.696Z,537.00
2022-12-06T22:17:08.071Z,563.83
2022-12-06T22:19:34.641Z,605.65
2022-12-06T22:22:01.079Z,627.08
2022-12-06T22:24:27.332Z,628.45
2022-12-06T22:26:53.639Z,623.25
2022-12-06T22:29:19.915Z,615.03
2022-12-06T22:31:46.383Z,614.58
2022-12-06T22:34:12.718Z,609.40
2022-12-06T22:36:39.018Z,698.85
2022-12-06T22:39:05.346Z,676.35
2022-12-06T22:41:31.665Z,651.97
2022-12-06T22:43:58.047Z,627.95
2022-12-06T22:46:24.373Z,618.15
2022-12-06T22:48:50.706Z,620.05
2022-12-06T22:51:17.050Z,609.90
2022-12-06T22:53:43.287Z,609.20
2022-12-06T22:56:09.537Z,604.67
2022-12-06T22:58:35.912Z,586.65
2022-12-06T23:01:02.212Z,587.83
2022-12-06T23:03:28.480Z,578.78
2022-12-06T23:05:54.879Z,575.40
2022-12-06T23:08:21.328Z,567.40
2022-12-06T23:10:47.732Z,548.67
2022-12-06T23:13:14.279Z,561.00
2022-12-06T23:15:40.565Z,562.17
2022-12-06T23:18:06.863Z,544.70
2022-12-06T23:20:33.172Z,541.78
2022-12-06T23:22:59.515Z,539.58
2022-12-06T23:25:25.834Z,535.40
2022-12-06T23:27:52.103Z,526.22
2022-12-06T23:30:18.527Z,517.03
2022-12-06T23:32:44.877Z,507.92
2022-12-06T23:35:11.226Z,503.27
2022-12-06T23:37:37.511Z,510.52
2022-12-06T23:40:04.066Z,501.02
2022-12-06T23:42:30.399Z,484.85
2022-12-06T23:44:56.682Z,488.40
2022-12-06T23:47:22.952Z,487.05
2022-12-06T23:49:49.377Z,467.33
2022-12-06T23:52:15.843Z,473.45
2022-12-06T23:54:42.240Z,465.33
2022-12-06T23:57:08.594Z,459.08
2022-12-06T23:59:34.827Z,457.65
